sensor_id;sensor_type;location;lat;lon;timestamp;pressure;altitude;pressure_sealevel;temperature;humidity
74893;BME280;63446;56.272;43.922;2023-02-14T00:01:12;99428.72;;;-1.90;68.19
74893;BME280;63446;56.272;43.922;2023-02-14T00:03:38;99423.13;;;-1.87;68.03
74893;BME280;63446;56.272;43.922;2023-02-14T00:06:06;99423.72;;;-1.85;68.08
74893;BME280;63446;56.272;43.922;2023-02-14T00:08:32;99421.72;;;-1.83;68.21
74893;BME280;63446;56.272;43.922;2023-02-14T00:10:58;99425.88;;;-1.82;68.10
74893;BME280;63446;56.272;43.922;2023-02-14T00:13:23;99410.94;;;-1.80;68.33
74893;BME280;63446;56.272;43.922;2023-02-14T00:15:49;99416.91;;;-1.80;68.31
74893;BME280;63446;56.272;43.922;2023-02-14T00:18:15;99413.09;;;-1.77;68.34
74893;BME280;63446;56.272;43.922;2023-02-14T00:20:41;99418.88;;;-1.75;67.98
74893;BME280;63446;56.272;43.922;2023-02-14T00:23:06;99412.09;;;-1.76;68.20
74893;BME280;63446;56.272;43.922;2023-02-14T00:25:33;99411.31;;;-1.77;68.44
74893;BME280;63446;56.272;43.922;2023-02-14T00:27:59;99412.09;;;-1.76;68.43
74893;BME280;63446;56.272;43.922;2023-02-14T00:30:24;99410.88;;;-1.74;68.50
74893;BME280;63446;56.272;43.922;2023-02-14T00:32:50;99407.06;;;-1.71;68.51
74893;BME280;63446;56.272;43.922;2023-02-14T00:35:16;99401.09;;;-1.72;68.66
74893;BME280;63446;56.272;43.922;2023-02-14T00:37:42;99405.88;;;-1.68;68.46
74893;BME280;63446;56.272;43.922;2023-02-14T00:40:08;99399.91;;;-1.69;68.40
74893;BME280;63446;56.272;43.922;2023-02-14T00:42:34;99390.75;;;-1.72;68.61
74893;BME280;63446;56.272;43.922;2023-02-14T00:44:59;99390.75;;;-1.72;68.56
74893;BME280;63446;56.272;43.922;2023-02-14T00:47:26;99400.88;;;-1.70;68.59
74893;BME280;63446;56.272;43.922;2023-02-14T00:49:51;99392.91;;;-1.68;68.37
74893;BME280;63446;56.272;43.922;2023-02-14T00:52:17;99390.53;;;-1.70;68.40
74893;BME280;63446;56.272;43.922;2023-02-14T00:54:43;99399.06;;;-1.69;68.42
74893;BME280;63446;56.272;43.922;2023-02-14T00:57:09;99396.06;;;-1.66;68.54
74893;BME280;63446;56.272;43.922;2023-02-14T00:59:35;99391.69;;;-1.66;68.47
74893;BME280;63446;56.272;43.922;2023-02-14T01:02:03;99398.47;;;-1.65;68.55
74893;BME280;63446;56.272;43.922;2023-02-14T01:04:29;99396.84;;;-1.66;68.35
74893;BME280;63446;56.272;43.922;2023-02-14T01:06:56;99390.09;;;-1.67;68.57
74893;BME280;63446;56.272;43.922;2023-02-14T01:09:21;99390.88;;;-1.66;68.60
74893;BME280;63446;56.272;43.922;2023-02-14T01:11:47;99396.06;;;-1.66;68.58
74893;BME280;63446;56.272;43.922;2023-02-14T01:14:13;99391.47;;;-1.64;68.63
74893;BME280;63446;56.272;43.922;2023-02-14T01:16:41;99398.25;;;-1.63;68.53
74893;BME280;63446;56.272;43.922;2023-02-14T01:19:07;99395.66;;;-1.63;68.66
74893;BME280;63446;56.272;43.922;2023-02-14T01:21:33;99402.22;;;-1.61;68.69
74893;BME280;63446;56.272;43.922;2023-02-14T01:24:03;99395.44;;;-1.62;68.78
74893;BME280;63446;56.272;43.922;2023-02-14T01:26:30;99400.03;;;-1.64;68.54
74893;BME280;63446;56.272;43.922;2023-02-14T01:29:00;99390.09;;;-1.67;68.69
74893;BME280;63446;56.272;43.922;2023-02-14T01:31:30;99392.13;;;-1.69;68.74
74893;BME280;63446;56.272;43.922;2023-02-14T01:33:57;99386.56;;;-1.73;68.81
74893;BME280;63446;56.272;43.922;2023-02-14T01:36:26;99397.34;;;-1.76;68.71
74893;BME280;63446;56.272;43.922;2023-02-14T01:39:07;99390.22;;;-1.80;68.68
74893;BME280;63446;56.272;43.922;2023-02-14T01:41:34;99394.25;;;-1.84;68.53
74893;BME280;63446;56.272;43.922;2023-02-14T01:46:32;99396.91;;;-1.98;68.55
74893;BME280;63446;56.272;43.922;2023-02-14T01:49:29;99393.94;;;-2.01;68.61
74893;BME280;63446;56.272;43.922;2023-02-14T01:52:19;99400.13;;;-2.02;68.75
74893;BME280;63446;56.272;43.922;2023-02-14T01:55:14;99397.75;;;-2.04;68.71
74893;BME280;63446;56.272;43.922;2023-02-14T01:57:46;99407.31;;;-2.04;68.66
74893;BME280;63446;56.272;43.922;2023-02-14T02:00:16;99411.28;;;-2.02;68.80
74893;BME280;63446;56.272;43.922;2023-02-14T02:03:03;99410.88;;;-1.99;68.89
74893;BME280;63446;56.272;43.922;2023-02-14T02:05:30;99408.28;;;-1.99;68.73
74893;BME280;63446;56.272;43.922;2023-02-14T02:07:58;99410.25;;;-2.01;68.81
74893;BME280;63446;56.272;43.922;2023-02-14T02:10:27;99405.31;;;-2.02;68.85
74893;BME280;63446;56.272;43.922;2023-02-14T02:12:53;99407.31;;;-2.04;68.80
74893;BME280;63446;56.272;43.922;2023-02-14T02:15:22;99399.97;;;-2.07;68.90
74893;BME280;63446;56.272;43.922;2023-02-14T02:18:02;99407.94;;;-2.09;68.92
74893;BME280;63446;56.272;43.922;2023-02-14T02:37:39;99408.69;;;-2.02;69.11
74893;BME280;63446;56.272;43.922;2023-02-14T02:48:57;99417.28;;;-2.08;69.29
74893;BME280;63446;56.272;43.922;2023-02-14T02:51:50;99410.53;;;-2.09;69.28
74893;BME280;63446;56.272;43.922;2023-02-14T02:54:42;99419.06;;;-2.08;69.25
74893;BME280;63446;56.272;43.922;2023-02-14T02:57:17;99409.72;;;-2.09;69.34
74893;BME280;63446;56.272;43.922;2023-02-14T02:59:48;99416.94;;;-2.11;69.21
74893;BME280;63446;56.272;43.922;2023-02-14T03:02:26;99411.38;;;-2.15;69.25
74893;BME280;63446;56.272;43.922;2023-02-14T03:04:58;99415.53;;;-2.14;69.31
74893;BME280;63446;56.272;43.922;2023-02-14T03:07:35;99412.16;;;-2.14;69.39
74893;BME280;63446;56.272;43.922;2023-02-14T03:12:56;99419.94;;;-2.14;69.39
74893;BME280;63446;56.272;43.922;2023-02-14T03:18:19;99412.34;;;-2.16;69.24
74893;BME280;63446;56.272;43.922;2023-02-14T03:23:33;99428.47;;;-2.14;69.33
74893;BME280;63446;56.272;43.922;2023-02-14T03:26:17;99427.31;;;-2.18;69.38
74893;BME280;63446;56.272;43.922;2023-02-14T03:31:56;99422.78;;;-2.23;69.30
74893;BME280;63446;56.272;43.922;2023-02-14T03:34:59;99422.38;;;-2.26;69.43
74893;BME280;63446;56.272;43.922;2023-02-14T03:43:14;99431.94;;;-2.27;69.43
74893;BME280;63446;56.272;43.922;2023-02-14T03:46:21;99437.91;;;-2.26;69.68
74893;BME280;63446;56.272;43.922;2023-02-14T03:48:53;99441.69;;;-2.22;69.56
74893;BME280;63446;56.272;43.922;2023-02-14T03:51:21;99446.25;;;-2.24;69.30
74893;BME280;63446;56.272;43.922;2023-02-14T03:53:52;99437.91;;;-2.26;69.28
74893;BME280;63446;56.272;43.922;2023-02-14T03:56:35;99447.47;;;-2.27;69.43
74893;BME280;63446;56.272;43.922;2023-02-14T03:59:08;99439.91;;;-2.28;69.45
74893;BME280;63446;56.272;43.922;2023-02-14T04:01:38;99448.69;;;-2.29;69.33
74893;BME280;63446;56.272;43.922;2023-02-14T04:04:08;99447.09;;;-2.30;69.58
74893;BME280;63446;56.272;43.922;2023-02-14T04:06:34;99448.28;;;-2.33;69.64
74893;BME280;63446;56.272;43.922;2023-02-14T04:09:00;99443.75;;;-2.44;69.53
74893;BME280;63446;56.272;43.922;2023-02-14T04:11:26;99463.84;;;-2.39;69.51
74893;BME280;63446;56.272;43.922;2023-02-14T04:13:52;99448.31;;;-2.39;69.66
74893;BME280;63446;56.272;43.922;2023-02-14T04:16:18;99461.06;;;-2.38;69.64
74893;BME280;63446;56.272;43.922;2023-02-14T04:18:45;99460.06;;;-2.37;69.66
74893;BME280;63446;56.272;43.922;2023-02-14T04:21:29;99451.88;;;-2.34;69.78
74893;BME280;63446;56.272;43.922;2023-02-14T04:23:54;99457.44;;;-2.30;69.66
74893;BME280;63446;56.272;43.922;2023-02-14T04:26:20;99466.78;;;-2.29;69.77
74893;BME280;63446;56.272;43.922;2023-02-14T04:28:46;99465.78;;;-2.28;69.72
74893;BME280;63446;56.272;43.922;2023-02-14T04:31:12;99467.38;;;-2.27;69.63
74893;BME280;63446;56.272;43.922;2023-02-14T04:33:37;99471.75;;;-2.28;69.59
74893;BME280;63446;56.272;43.922;2023-02-14T04:36:04;99469.94;;;-2.27;69.46
74893;BME280;63446;56.272;43.922;2023-02-14T04:38:31;99472.53;;;-2.27;69.59
74893;BME280;63446;56.272;43.922;2023-02-14T04:40:57;99470.97;;;-2.28;69.58
74893;BME280;63446;56.272;43.922;2023-02-14T04:43:23;99478.31;;;-2.25;69.64
74893;BME280;63446;56.272;43.922;2023-02-14T04:45:49;99482.09;;;-2.21;69.66
74893;BME280;63446;56.272;43.922;2023-02-14T04:48:15;99484.06;;;-2.23;69.88
74893;BME280;63446;56.272;43.922;2023-02-14T04:50:41;99488.81;;;-2.13;69.38
74893;BME280;63446;56.272;43.922;2023-02-14T04:53:06;99489.81;;;-2.14;69.42
74893;BME280;63446;56.272;43.922;2023-02-14T04:55:32;99496.19;;;-2.17;69.30
74893;BME280;63446;56.272;43.922;2023-02-14T04:57:58;99498.00;;;-2.17;69.47
74893;BME280;63446;56.272;43.922;2023-02-14T05:00:24;99498.38;;;-2.14;69.68
74893;BME280;63446;56.272;43.922;2023-02-14T05:02:49;99501.34;;;-2.10;69.60
74893;BME280;63446;56.272;43.922;2023-02-14T05:05:15;99499.56;;;-2.10;69.48
74893;BME280;63446;56.272;43.922;2023-02-14T05:07:41;99514.06;;;-2.09;69.42
74893;BME280;63446;56.272;43.922;2023-02-14T05:10:12;99504.50;;;-2.08;69.34
74893;BME280;63446;56.272;43.922;2023-02-14T05:12:39;99504.72;;;-2.10;69.48
74893;BME280;63446;56.272;43.922;2023-02-14T05:15:05;99513.25;;;-2.03;69.58
74893;BME280;63446;56.272;43.922;2023-02-14T05:17:30;99505.28;;;-2.01;69.38
74893;BME280;63446;56.272;43.922;2023-02-14T05:19:56;99507.47;;;-1.98;69.25
74893;BME280;63446;56.272;43.922;2023-02-14T05:22:24;99511.22;;;-1.94;69.20
74893;BME280;63446;56.272;43.922;2023-02-14T05:24:50;99513.19;;;-1.89;69.40
74893;BME280;63446;56.272;43.922;2023-02-14T05:27:16;99515.38;;;-1.86;69.10
74893;BME280;63446;56.272;43.922;2023-02-14T05:29:41;99513.38;;;-1.84;69.29
74893;BME280;63446;56.272;43.922;2023-02-14T05:32:07;99516.13;;;-1.79;69.29
74893;BME280;63446;56.272;43.922;2023-02-14T05:34:33;99520.91;;;-1.76;69.27
74893;BME280;63446;56.272;43.922;2023-02-14T05:36:59;99517.66;;;-1.72;69.17
74893;BME280;63446;56.272;43.922;2023-02-14T05:39:27;99517.03;;;-1.67;69.33
74893;BME280;63446;56.272;43.922;2023-02-14T05:41:53;99522.38;;;-1.62;69.05
74893;BME280;63446;56.272;43.922;2023-02-14T05:44:21;99518.81;;;-1.61;68.96
74893;BME280;63446;56.272;43.922;2023-02-14T05:46:48;99523.34;;;-1.56;68.80
74893;BME280;63446;56.272;43.922;2023-02-14T05:49:14;99532.72;;;-1.55;68.95
74893;BME280;63446;56.272;43.922;2023-02-14T05:51:46;99536.69;;;-1.53;68.76
74893;BME280;63446;56.272;43.922;2023-02-14T05:54:13;99534.25;;;-1.48;68.66
74893;BME280;63446;56.272;43.922;2023-02-14T05:56:39;99535.84;;;-1.47;68.67
74893;BME280;63446;56.272;43.922;2023-02-14T05:59:04;99535.84;;;-1.47;68.48
74893;BME280;63446;56.272;43.922;2023-02-14T06:01:30;99539.44;;;-1.48;68.56
74893;BME280;63446;56.272;43.922;2023-02-14T06:03:56;99551.97;;;-1.44;68.54
74893;BME280;63446;56.272;43.922;2023-02-14T06:06:23;99546.16;;;-1.40;68.51
74893;BME280;63446;56.272;43.922;2023-02-14T06:08:49;99552.50;;;-1.36;68.61
74893;BME280;63446;56.272;43.922;2023-02-14T06:11:14;99556.06;;;-1.30;68.62
74893;BME280;63446;56.272;43.922;2023-02-14T06:13:40;99554.44;;;-1.25;68.37
74893;BME280;63446;56.272;43.922;2023-02-14T06:16:06;99556.38;;;-1.20;68.12
74893;BME280;63446;56.272;43.922;2023-02-14T06:18:32;99568.50;;;-1.14;68.10
74893;BME280;63446;56.272;43.922;2023-02-14T06:20:58;99554.53;;;-1.13;68.01
74893;BME280;63446;56.272;43.922;2023-02-14T06:23:24;99564.50;;;-1.10;67.88
74893;BME280;63446;56.272;43.922;2023-02-14T06:25:50;99577.03;;;-1.07;67.82
74893;BME280;63446;56.272;43.922;2023-02-14T06:28:16;99569.69;;;-1.10;67.59
74893;BME280;63446;56.272;43.922;2023-02-14T06:30:42;99576.66;;;-1.10;67.53
74893;BME280;63446;56.272;43.922;2023-02-14T06:33:08;99575.09;;;-1.11;67.55
74893;BME280;63446;56.272;43.922;2023-02-14T06:35:35;99574.72;;;-1.15;67.48
74893;BME280;63446;56.272;43.922;2023-02-14T06:38:00;99579.44;;;-1.12;67.38
74893;BME280;63446;56.272;43.922;2023-02-14T06:40:26;99580.00;;;-1.03;67.49
74893;BME280;63446;56.272;43.922;2023-02-14T06:42:52;99584.13;;;-0.95;67.28
74893;BME280;63446;56.272;43.922;2023-02-14T06:45:18;99585.03;;;-0.83;67.16
74893;BME280;63446;56.272;43.922;2023-02-14T06:47:44;99583.59;;;-0.79;67.05
74893;BME280;63446;56.272;43.922;2023-02-14T06:50:10;99586.69;;;-0.70;66.60
74893;BME280;63446;56.272;43.922;2023-02-14T06:52:36;99585.06;;;-0.65;66.59
74893;BME280;63446;56.272;43.922;2023-02-14T06:55:02;99591.41;;;-0.61;66.35
74893;BME280;63446;56.272;43.922;2023-02-14T06:57:29;99582.38;;;-0.58;66.40
74893;BME280;63446;56.272;43.922;2023-02-14T06:59:54;99605.69;;;-0.52;66.37
74893;BME280;63446;56.272;43.922;2023-02-14T07:02:21;99606.28;;;-0.50;66.28
74893;BME280;63446;56.272;43.922;2023-02-14T07:04:47;99592.06;;;-0.47;66.05
74893;BME280;63446;56.272;43.922;2023-02-14T07:07:13;99596.84;;;-0.44;65.91
74893;BME280;63446;56.272;43.922;2023-02-14T07:09:38;99599.00;;;-0.41;65.68
74893;BME280;63446;56.272;43.922;2023-02-14T07:12:04;99599.38;;;-0.37;65.86
74893;BME280;63446;56.272;43.922;2023-02-14T07:14:30;99600.31;;;-0.32;65.87
74893;BME280;63446;56.272;43.922;2023-02-14T07:16:58;99602.47;;;-0.29;65.35
74893;BME280;63446;56.272;43.922;2023-02-14T07:19:24;99605.84;;;-0.28;65.18
74893;BME280;63446;56.272;43.922;2023-02-14T07:21:50;99608.63;;;-0.23;65.31
74893;BME280;63446;56.272;43.922;2023-02-14T07:24:16;99609.78;;;-0.19;65.28
74893;BME280;63446;56.272;43.922;2023-02-14T07:26:42;99605.56;;;-0.20;65.03
74893;BME280;63446;56.272;43.922;2023-02-14T07:29:09;99603.06;;;-0.27;65.00
74893;BME280;63446;56.272;43.922;2023-02-14T07:31:35;99611.66;;;-0.26;64.91
74893;BME280;63446;56.272;43.922;2023-02-14T07:34:00;99609.25;;;-0.28;65.02
74893;BME280;63446;56.272;43.922;2023-02-14T07:36:27;99612.06;;;-0.29;64.90
74893;BME280;63446;56.272;43.922;2023-02-14T07:38:54;99614.66;;;-0.29;64.72
74893;BME280;63446;56.272;43.922;2023-02-14T07:41:22;99622.31;;;-0.34;64.59
74893;BME280;63446;56.272;43.922;2023-02-14T07:43:47;99619.72;;;-0.34;64.48
74893;BME280;63446;56.272;43.922;2023-02-14T07:46:13;99631.69;;;-0.33;64.54
74893;BME280;63446;56.272;43.922;2023-02-14T07:48:39;99635.06;;;-0.33;64.44
74893;BME280;63446;56.272;43.922;2023-02-14T07:51:04;99639.25;;;-0.32;64.25
74893;BME280;63446;56.272;43.922;2023-02-14T07:53:30;99642.22;;;-0.28;64.15
74893;BME280;63446;56.272;43.922;2023-02-14T07:55:56;99644.97;;;-0.23;64.11
74893;BME280;63446;56.272;43.922;2023-02-14T07:58:22;99640.94;;;-0.19;63.87
74893;BME280;63446;56.272;43.922;2023-02-14T08:00:48;99646.03;;;-0.12;63.72
74893;BME280;63446;56.272;43.922;2023-02-14T08:03:16;99651.19;;;-0.06;63.53
74893;BME280;63446;56.272;43.922;2023-02-14T08:05:42;99664.09;;;0.01;63.63
74893;BME280;63446;56.272;43.922;2023-02-14T08:08:08;99657.25;;;0.07;63.21
74893;BME280;63446;56.272;43.922;2023-02-14T08:10:35;99667.63;;;0.07;63.00
74893;BME280;63446;56.272;43.922;2023-02-14T08:13:01;99671.38;;;0.11;62.88
74893;BME280;63446;56.272;43.922;2023-02-14T08:15:30;99671.97;;;0.13;62.65
74893;BME280;63446;56.272;43.922;2023-02-14T08:18:16;99672.25;;;0.23;62.49
74893;BME280;63446;56.272;43.922;2023-02-14T08:20:45;99680.56;;;0.32;62.45
74893;BME280;63446;56.272;43.922;2023-02-14T08:23:11;99680.25;;;0.40;62.35
74893;BME280;63446;56.272;43.922;2023-02-14T08:25:38;99694.75;;;0.47;62.12
74893;BME280;63446;56.272;43.922;2023-02-14T08:28:04;99686.53;;;0.51;62.04
74893;BME280;63446;56.272;43.922;2023-02-14T08:30:30;99692.44;;;0.58;61.76
74893;BME280;63446;56.272;43.922;2023-02-14T08:32:56;99694.50;;;0.67;61.71
74893;BME280;63446;56.272;43.922;2023-02-14T08:35:23;99695.94;;;0.82;61.39
74893;BME280;63446;56.272;43.922;2023-02-14T08:37:49;99697.91;;;0.98;61.48
74893;BME280;63446;56.272;43.922;2023-02-14T08:40:14;99697.63;;;1.18;61.30
74893;BME280;63446;56.272;43.922;2023-02-14T08:42:40;99700.06;;;1.43;61.28
74893;BME280;63446;56.272;43.922;2023-02-14T08:45:06;99704.50;;;1.66;61.01
74893;BME280;63446;56.272;43.922;2023-02-14T08:47:33;99709.72;;;1.89;60.96
74893;BME280;63446;56.272;43.922;2023-02-14T08:50:05;99711.03;;;2.04;60.38
74893;BME280;63446;56.272;43.922;2023-02-14T08:52:31;99708.91;;;2.12;59.75
74893;BME280;63446;56.272;43.922;2023-02-14T08:54:58;99712.75;;;2.10;59.54
74893;BME280;63446;56.272;43.922;2023-02-14T08:57:24;99712.66;;;2.05;59.29
74893;BME280;63446;56.272;43.922;2023-02-14T08:59:52;99714.91;;;2.01;59.26
74893;BME280;63446;56.272;43.922;2023-02-14T09:02:18;99707.00;;;1.96;59.10
74893;BME280;63446;56.272;43.922;2023-02-14T09:04:44;99718.31;;;1.90;59.02
74893;BME280;63446;56.272;43.922;2023-02-14T09:07:13;99724.91;;;1.81;58.84
74893;BME280;63446;56.272;43.922;2023-02-14T09:09:40;99714.44;;;1.69;58.71
74893;BME280;63446;56.272;43.922;2023-02-14T09:12:08;99735.84;;;1.59;58.61
74893;BME280;63446;56.272;43.922;2023-02-14T09:14:39;99728.28;;;1.58;58.76
74893;BME280;63446;56.272;43.922;2023-02-14T09:17:11;99736.09;;;1.58;58.95
74893;BME280;63446;56.272;43.922;2023-02-14T09:19:40;99732.47;;;1.59;58.70
74893;BME280;63446;56.272;43.922;2023-02-14T09:22:07;99733.47;;;1.58;58.58
74893;BME280;63446;56.272;43.922;2023-02-14T09:24:35;99724.50;;;1.54;58.36
74893;BME280;63446;56.272;43.922;2023-02-14T09:27:02;99740.38;;;1.52;58.41
74893;BME280;63446;56.272;43.922;2023-02-14T09:29:28;99736.72;;;1.53;58.55
74893;BME280;63446;56.272;43.922;2023-02-14T09:31:56;99744.00;;;1.51;58.26
74893;BME280;63446;56.272;43.922;2023-02-14T09:34:22;99744.66;;;1.46;58.30
74893;BME280;63446;56.272;43.922;2023-02-14T09:37:09;99748.28;;;1.45;58.46
74893;BME280;63446;56.272;43.922;2023-02-14T09:39:54;99753.34;;;1.40;58.26
74893;BME280;63446;56.272;43.922;2023-02-14T09:42:38;99761.63;;;1.37;58.16
74893;BME280;63446;56.272;43.922;2023-02-14T09:45:13;99769.66;;;1.36;58.29
74893;BME280;63446;56.272;43.922;2023-02-14T09:50:47;99761.25;;;1.34;58.16
74893;BME280;63446;56.272;43.922;2023-02-14T09:56:07;99775.84;;;1.23;57.92
74893;BME280;63446;56.272;43.922;2023-02-14T10:01:22;99784.47;;;1.05;57.98
74893;BME280;63446;56.272;43.922;2023-02-14T10:06:48;99792.06;;;0.88;58.20
74893;BME280;63446;56.272;43.922;2023-02-14T10:11:49;99796.59;;;0.81;58.55
74893;BME280;63446;56.272;43.922;2023-02-14T10:14:22;99812.19;;;0.81;58.73
74893;BME280;63446;56.272;43.922;2023-02-14T10:16:56;99814.63;;;0.76;58.66
74893;BME280;63446;56.272;43.922;2023-02-14T10:21:55;99826.00;;;0.63;58.56
74893;BME280;63446;56.272;43.922;2023-02-14T10:24:42;99819.50;;;0.54;58.51
74893;BME280;63446;56.272;43.922;2023-02-14T10:29:41;99838.53;;;0.48;58.92
74893;BME280;63446;56.272;43.922;2023-02-14T10:32:13;99838.41;;;0.43;58.94
74893;BME280;63446;56.272;43.922;2023-02-14T10:34:50;99834.84;;;0.37;58.99
74893;BME280;63446;56.272;43.922;2023-02-14T10:46:14;99835.97;;;0.23;59.19
74893;BME280;63446;56.272;43.922;2023-02-14T10:48:58;99832.19;;;0.19;59.20
74893;BME280;63446;56.272;43.922;2023-02-14T10:56:40;99843.03;;;0.16;59.41
74893;BME280;63446;56.272;43.922;2023-02-14T10:59:32;99854.75;;;0.25;59.66
74893;BME280;63446;56.272;43.922;2023-02-14T11:02:00;99855.06;;;0.35;59.60
74893;BME280;63446;56.272;43.922;2023-02-14T11:04:26;99869.78;;;0.41;59.59
74893;BME280;63446;56.272;43.922;2023-02-14T11:06:56;99857.81;;;0.40;59.38
74893;BME280;63446;56.272;43.922;2023-02-14T11:09:22;99875.59;;;0.43;59.40
74893;BME280;63446;56.272;43.922;2023-02-14T11:11:52;99880.97;;;0.42;59.41
74893;BME280;63446;56.272;43.922;2023-02-14T11:14:29;99874.06;;;0.36;59.44
74893;BME280;63446;56.272;43.922;2023-02-14T11:16:57;99870.06;;;0.33;59.36
74893;BME280;63446;56.272;43.922;2023-02-14T11:19:30;99885.66;;;0.33;59.40
74893;BME280;63446;56.272;43.922;2023-02-14T11:22:00;99889.47;;;0.31;59.57
74893;BME280;63446;56.272;43.922;2023-02-14T11:24:35;99894.91;;;0.29;59.54
74893;BME280;63446;56.272;43.922;2023-02-14T11:27:04;99900.94;;;0.23;59.41
74893;BME280;63446;56.272;43.922;2023-02-14T11:29:51;99901.56;;;0.18;59.55
74893;BME280;63446;56.272;43.922;2023-02-14T11:35:19;99905.78;;;0.19;59.99
74893;BME280;63446;56.272;43.922;2023-02-14T11:37:50;99901.00;;;0.16;59.81
74893;BME280;63446;56.272;43.922;2023-02-14T11:40:35;99908.00;;;0.16;59.98
74893;BME280;63446;56.272;43.922;2023-02-14T11:45:42;99912.59;;;0.14;60.16
74893;BME280;63446;56.272;43.922;2023-02-14T11:48:16;99911.44;;;0.10;59.97
74893;BME280;63446;56.272;43.922;2023-02-14T11:50:42;99922.47;;;0.05;59.95
74893;BME280;63446;56.272;43.922;2023-02-14T11:53:11;99929.28;;;-0.01;60.01
74893;BME280;63446;56.272;43.922;2023-02-14T11:55:37;99924.72;;;-0.05;60.03
74893;BME280;63446;56.272;43.922;2023-02-14T11:58:05;99930.53;;;-0.10;59.91
74893;BME280;63446;56.272;43.922;2023-02-14T12:00:32;99928.97;;;-0.17;59.89
74893;BME280;63446;56.272;43.922;2023-02-14T12:03:01;99941.81;;;-0.22;60.06
74893;BME280;63446;56.272;43.922;2023-02-14T12:05:45;99939.63;;;-0.26;60.06
74893;BME280;63446;56.272;43.922;2023-02-14T12:08:13;99938.63;;;-0.31;60.22
74893;BME280;63446;56.272;43.922;2023-02-14T12:10:41;99945.06;;;-0.34;60.48
74893;BME280;63446;56.272;43.922;2023-02-14T12:18:24;99956.88;;;-0.38;60.73
74893;BME280;63446;56.272;43.922;2023-02-14T12:21:04;99969.06;;;-0.45;60.84
74893;BME280;63446;56.272;43.922;2023-02-14T12:26:34;99984.72;;;-0.65;61.07
74893;BME280;63446;56.272;43.922;2023-02-14T12:31:38;99993.53;;;-0.79;61.14
74893;BME280;63446;56.272;43.922;2023-02-14T12:34:04;99990.75;;;-0.84;61.28
74893;BME280;63446;56.272;43.922;2023-02-14T12:39:39;100008.91;;;-0.91;61.41
74893;BME280;63446;56.272;43.922;2023-02-14T12:42:41;100005.69;;;-0.93;61.63
74893;BME280;63446;56.272;43.922;2023-02-14T12:50:58;100026.66;;;-0.94;61.86
74893;BME280;63446;56.272;43.922;2023-02-14T12:53:37;100031.25;;;-0.96;61.81
74893;BME280;63446;56.272;43.922;2023-02-14T13:01:55;100048.63;;;-1.10;61.68
74893;BME280;63446;56.272;43.922;2023-02-14T13:04:57;100039.84;;;-1.23;61.87
74893;BME280;63446;56.272;43.922;2023-02-14T13:07:37;100040.06;;;-1.31;61.86
74893;BME280;63446;56.272;43.922;2023-02-14T13:10:13;100040.44;;;-1.40;61.95
74893;BME280;63446;56.272;43.922;2023-02-14T13:20:53;100055.34;;;-1.56;62.76
74893;BME280;63446;56.272;43.922;2023-02-14T13:23:31;100059.91;;;-1.58;62.75
74893;BME280;63446;56.272;43.922;2023-02-14T13:26:19;100066.50;;;-1.62;62.89
74893;BME280;63446;56.272;43.922;2023-02-14T13:28:55;100069.50;;;-1.65;62.97
74893;BME280;63446;56.272;43.922;2023-02-14T13:31:21;100074.06;;;-1.67;63.02
74893;BME280;63446;56.272;43.922;2023-02-14T13:33:50;100077.44;;;-1.66;63.36
74893;BME280;63446;56.272;43.922;2023-02-14T13:36:18;100085.59;;;-1.69;63.37
74893;BME280;63446;56.272;43.922;2023-02-14T13:38:49;100087.78;;;-1.73;63.28
74893;BME280;63446;56.272;43.922;2023-02-14T13:41:19;100087.00;;;-1.80;63.37
74893;BME280;63446;56.272;43.922;2023-02-14T13:43:51;100092.31;;;-1.88;63.45
74893;BME280;63446;56.272;43.922;2023-02-14T13:46:20;100097.28;;;-1.93;63.49
74893;BME280;63446;56.272;43.922;2023-02-14T13:51:49;100111.78;;;-2.06;63.72
74893;BME280;63446;56.272;43.922;2023-02-14T13:57:33;100118.28;;;-2.16;63.91
74893;BME280;63446;56.272;43.922;2023-02-14T14:02:51;100129.41;;;-2.23;64.08
74893;BME280;63446;56.272;43.922;2023-02-14T14:10:53;100134.78;;;-2.24;64.44
74893;BME280;63446;56.272;43.922;2023-02-14T14:19:34;100137.56;;;-2.26;64.71
74893;BME280;63446;56.272;43.922;2023-02-14T14:21:59;100151.09;;;-2.24;64.85
74893;BME280;63446;56.272;43.922;2023-02-14T14:24:30;100159.28;;;-2.20;64.87
74893;BME280;63446;56.272;43.922;2023-02-14T14:27:00;100157.31;;;-2.18;64.88
74893;BME280;63446;56.272;43.922;2023-02-14T14:29:38;100157.91;;;-2.16;65.00
74893;BME280;63446;56.272;43.922;2023-02-14T14:35:02;100174.50;;;-2.10;65.33
74893;BME280;63446;56.272;43.922;2023-02-14T14:37:56;100172.94;;;-2.05;65.36
74893;BME280;63446;56.272;43.922;2023-02-14T14:40:25;100180.94;;;-2.00;65.40
74893;BME280;63446;56.272;43.922;2023-02-14T14:42:52;100183.13;;;-1.97;65.51
74893;BME280;63446;56.272;43.922;2023-02-14T14:45:24;100183.16;;;-1.90;65.50
74893;BME280;63446;56.272;43.922;2023-02-14T14:47:55;100184.59;;;-1.87;65.67
74893;BME280;63446;56.272;43.922;2023-02-14T14:50:24;100190.97;;;-1.83;65.70
74893;BME280;63446;56.272;43.922;2023-02-14T14:52:56;100192.56;;;-1.82;65.81
74893;BME280;63446;56.272;43.922;2023-02-14T14:55:33;100202.56;;;-1.79;65.71
74893;BME280;63446;56.272;43.922;2023-02-14T14:58:03;100203.16;;;-1.77;65.87
74893;BME280;63446;56.272;43.922;2023-02-14T15:00:35;100204.56;;;-1.75;65.94
74893;BME280;63446;56.272;43.922;2023-02-14T15:05:49;100222.94;;;-1.69;66.12
74893;BME280;63446;56.272;43.922;2023-02-14T15:08:20;100215.78;;;-1.67;66.05
74893;BME280;63446;56.272;43.922;2023-02-14T15:10:53;100222.38;;;-1.65;66.33
74893;BME280;63446;56.272;43.922;2023-02-14T15:13:29;100223.34;;;-1.66;66.22
74893;BME280;63446;56.272;43.922;2023-02-14T15:18:52;100239.66;;;-1.72;66.09
74893;BME280;63446;56.272;43.922;2023-02-14T15:21:19;100236.03;;;-1.78;66.19
74893;BME280;63446;56.272;43.922;2023-02-14T15:23:45;100240.19;;;-1.83;66.19
74893;BME280;63446;56.272;43.922;2023-02-14T15:26:17;100248.34;;;-1.86;66.35
74893;BME280;63446;56.272;43.922;2023-02-14T15:29:05;100248.91;;;-1.91;66.31
74893;BME280;63446;56.272;43.922;2023-02-14T15:31:37;100241.47;;;-2.01;66.23